Time;durP1;ratioP1;P1;durP2;ratioP2;P2;SDS_P1;SDS_P2;PMS_P1;PMS_P2;Temp;Humidity;BMP_temperature;BMP_pressure;BME280_temperature;BME280_humidity;BME280_pressure;Samples;Min_cycle;Max_cycle;Signal;HPM_P1;HPM_P2
2023/03/10 00:00:38;;;;;;;1.73;1.27;;;9.20;99.90;;;;;;4962200;28;20180;-38
2023/03/10 00:03:04;;;;;;;2.90;1.27;;;9.10;99.90;;;;;;4976154;28;20196;-39
2023/03/10 00:05:31;;;;;;;2.33;1.50;;;9.10;99.90;;;;;;4960052;28;20176;-40
2023/03/10 00:07:57;;;;;;;3.17;1.60;;;9.10;99.90;;;;;;4976173;28;20184;-41
2023/03/10 00:10:23;;;;;;;2.43;1.33;;;9.10;99.90;;;;;;4991996;28;20730;-39
2023/03/10 00:12:48;;;;;;;4.87;1.60;;;9.00;99.90;;;;;;4960620;28;20250;-39
2023/03/10 00:15:14;;;;;;;6.30;3.80;;;8.90;99.90;;;;;;4958069;28;20181;-39
2023/03/10 00:17:40;;;;;;;8.10;3.80;;;8.80;99.90;;;;;;4975672;28;20247;-39
2023/03/10 00:20:10;;;;;;;9.40;6.33;;;8.80;99.90;;;;;;4990769;28;20180;-39
2023/03/10 00:22:36;;;;;;;6.93;4.77;;;8.70;99.90;;;;;;4960954;28;20206;-39
2023/03/10 00:25:02;;;;;;;7.40;3.60;;;8.60;99.90;;;;;;4976009;28;20242;-39
2023/03/10 00:27:28;;;;;;;4.77;3.17;;;8.60;99.90;;;;;;4978404;28;20188;-41
2023/03/10 00:29:55;;;;;;;5.10;2.47;;;8.50;99.90;;;;;;4961390;28;20274;-39
2023/03/10 00:32:21;;;;;;;5.13;2.43;;;8.50;99.90;;;;;;4961114;28;20250;-39
2023/03/10 00:34:46;;;;;;;3.23;1.70;;;8.50;99.90;;;;;;4959588;28;20211;-39
2023/03/10 00:37:12;;;;;;;3.07;2.07;;;8.50;99.90;;;;;;4976284;28;20176;-39
2023/03/10 00:39:38;;;;;;;3.93;1.70;;;8.40;99.90;;;;;;4960783;28;20215;-39
2023/03/10 00:42:04;;;;;;;2.63;1.40;;;8.40;99.90;;;;;;4961213;28;20226;-38
2023/03/10 00:44:30;;;;;;;4.03;1.30;;;8.30;99.90;;;;;;4993199;28;20188;-37
2023/03/10 00:46:56;;;;;;;4.13;1.53;;;8.30;99.90;;;;;;4992883;28;20199;-37
2023/03/10 00:49:21;;;;;;;3.50;1.43;;;8.30;99.90;;;;;;4976688;28;20188;-37
2023/03/10 00:51:47;;;;;;;2.97;1.87;;;8.30;99.90;;;;;;4975831;28;20211;-38
2023/03/10 00:54:13;;;;;;;3.60;1.50;;;8.30;99.90;;;;;;4958929;28;20179;-37
2023/03/10 00:56:39;;;;;;;2.67;1.23;;;8.30;99.90;;;;;;4977242;28;20172;-37
2023/03/10 00:59:06;;;;;;;3.50;1.40;;;8.40;99.90;;;;;;4963366;28;20291;-37
2023/03/10 01:01:36;;;;;;;2.80;1.33;;;8.40;99.90;;;;;;4976720;28;20204;-37
2023/03/10 01:04:05;;;;;;;2.47;1.10;;;8.40;99.90;;;;;;4975978;28;20191;-37
2023/03/10 01:06:31;;;;;;;3.50;1.40;;;8.40;99.90;;;;;;4976473;28;20188;-38
2023/03/10 01:08:57;;;;;;;3.07;1.40;;;8.50;99.90;;;;;;4975750;28;20563;-37
2023/03/10 01:11:26;;;;;;;2.30;1.60;;;8.50;99.90;;;;;;4976334;28;20218;-37
2023/03/10 01:13:54;;;;;;;3.17;1.40;;;8.50;99.90;;;;;;4959946;28;20179;-41
2023/03/10 01:16:20;;;;;;;2.33;1.87;;;8.60;99.90;;;;;;4992577;28;20180;-41
2023/03/10 01:18:47;;;;;;;3.43;1.80;;;8.60;99.90;;;;;;4993754;28;20176;-39
2023/03/10 01:21:24;;;;;;;3.20;1.50;;;8.60;99.90;;;;;;4975846;28;20382;-41
2023/03/10 01:23:50;;;;;;;3.13;1.40;;;8.60;99.90;;;;;;4975515;28;20187;-38
2023/03/10 01:26:17;;;;;;;3.20;1.40;;;8.60;99.90;;;;;;4975837;28;20278;-40
2023/03/10 01:28:44;;;;;;;3.03;1.70;;;8.60;99.90;;;;;;4959199;28;20546;-39
2023/03/10 01:31:10;;;;;;;2.70;1.40;;;8.60;99.90;;;;;;4992014;28;20204;-39
2023/03/10 01:33:41;;;;;;;2.00;1.37;;;8.60;99.90;;;;;;4975539;28;20207;-39
2023/03/10 01:36:14;;;;;;;2.97;1.20;;;8.60;99.90;;;;;;4975556;28;20175;-39
2023/03/10 01:38:41;;;;;;;3.83;1.57;;;8.60;99.90;;;;;;4975450;28;20211;-39
2023/03/10 01:41:07;;;;;;;2.03;1.20;;;8.70;99.90;;;;;;4992170;28;20179;-41
2023/03/10 01:43:44;;;;;;;4.40;1.30;;;8.70;99.90;;;;;;4975225;28;20199;-39
2023/03/10 01:46:37;;;;;;;2.87;1.43;;;8.70;99.90;;;;;;4959176;28;20672;-39
2023/03/10 01:49:17;;;;;;;4.00;1.50;;;8.80;99.90;;;;;;4963787;28;20318;-39
2023/03/10 01:51:52;;;;;;;3.10;1.10;;;8.90;99.90;;;;;;4975439;28;20214;-39
2023/03/10 01:54:24;;;;;;;4.23;1.40;;;9.00;99.90;;;;;;4975329;28;20262;-39
2023/03/10 01:56:52;;;;;;;4.93;1.50;;;9.00;99.90;;;;;;4975838;28;20185;-38
2023/03/10 01:59:19;;;;;;;3.70;1.27;;;9.10;99.90;;;;;;4959001;28;20271;-36
2023/03/10 02:01:45;;;;;;;3.03;1.40;;;9.10;99.90;;;;;;4975263;28;20200;-36
2023/03/10 02:04:22;;;;;;;5.57;1.80;;;9.10;99.90;;;;;;4975227;28;20184;-37
2023/03/10 02:06:50;;;;;;;3.53;1.27;;;9.10;99.90;;;;;;4975502;28;20210;-36
2023/03/10 02:09:17;;;;;;;3.03;1.20;;;9.10;99.90;;;;;;4962193;28;20180;-38
2023/03/10 02:11:45;;;;;;;4.30;1.40;;;9.10;99.90;;;;;;4991236;28;20215;-36
2023/03/10 02:14:11;;;;;;;3.53;1.27;;;9.10;99.90;;;;;;4974579;28;20211;-36
2023/03/10 02:16:37;;;;;;;5.63;1.27;;;9.10;99.90;;;;;;4958617;28;20200;-36
2023/03/10 02:19:07;;;;;;;2.97;1.10;;;9.10;99.90;;;;;;4962701;28;20303;-36
2023/03/10 02:21:44;;;;;;;1.87;0.93;;;9.10;99.90;;;;;;4992469;28;20207;-37
2023/03/10 02:24:37;;;;;;;2.83;1.27;;;9.10;99.90;;;;;;4974551;28;20176;-36
2023/03/10 02:27:16;;;;;;;1.80;0.90;;;9.10;99.90;;;;;;4974429;28;20195;-37
2023/03/10 02:29:50;;;;;;;1.10;1.00;;;9.10;99.90;;;;;;4968043;28;20187;-36
2023/03/10 02:32:17;;;;;;;3.47;1.03;;;9.10;99.90;;;;;;4990471;28;20302;-36
2023/03/10 02:34:43;;;;;;;1.77;1.17;;;9.10;99.90;;;;;;4990734;28;20267;-36
2023/03/10 02:37:22;;;;;;;2.83;1.17;;;9.10;99.90;;;;;;4974884;28;20275;-37
2023/03/10 02:39:49;;;;;;;1.70;1.00;;;9.10;99.90;;;;;;4990752;28;20659;-36
2023/03/10 02:42:15;;;;;;;4.13;1.27;;;9.10;99.90;;;;;;4974539;28;20226;-38
2023/03/10 02:44:43;;;;;;;1.87;0.90;;;9.10;99.90;;;;;;4990555;28;20195;-37
2023/03/10 02:47:11;;;;;;;2.33;1.07;;;9.10;99.90;;;;;;4974381;28;20190;-36
2023/03/10 02:49:38;;;;;;;1.67;0.80;;;9.20;99.90;;;;;;4974589;28;20184;-37
2023/03/10 02:52:10;;;;;;;0.93;0.60;;;9.20;99.90;;;;;;4978229;28;20266;-37
2023/03/10 02:54:36;;;;;;;1.83;0.60;;;9.20;99.90;;;;;;4970950;28;20191;-38
2023/03/10 02:57:04;;;;;;;0.97;0.67;;;9.20;99.90;;;;;;4970872;28;20243;-37
2023/03/10 02:59:30;;;;;;;0.50;0.50;;;9.10;99.90;;;;;;4990072;28;20179;-36
2023/03/10 03:01:56;;;;;;;1.87;1.33;;;9.10;99.90;;;;;;4972432;28;20201;-37
2023/03/10 03:04:22;;;;;;;0.73;0.67;;;9.10;99.90;;;;;;4973400;28;20176;-38
2023/03/10 03:06:48;;;;;;;0.83;0.63;;;9.10;99.90;;;;;;4974364;28;20176;-37
2023/03/10 03:09:14;;;;;;;0.93;0.70;;;9.10;99.90;;;;;;4957871;28;20180;-37
2023/03/10 03:11:40;;;;;;;0.50;0.50;;;9.10;99.90;;;;;;4974348;28;20230;-37
2023/03/10 03:14:08;;;;;;;3.00;0.70;;;9.10;99.90;;;;;;4991516;28;20207;-36
2023/03/10 03:16:34;;;;;;;0.63;0.60;;;9.00;99.90;;;;;;4954865;28;20187;-37
2023/03/10 03:19:03;;;;;;;2.30;0.70;;;9.10;99.90;;;;;;4984855;28;20172;-36
2023/03/10 03:21:30;;;;;;;1.73;0.60;;;9.10;99.90;;;;;;4990625;28;20211;-37
2023/03/10 03:23:57;;;;;;;0.70;0.70;;;9.10;99.90;;;;;;4973743;28;20274;-36
2023/03/10 03:26:25;;;;;;;0.70;0.60;;;9.10;99.90;;;;;;4974235;28;20266;-37
2023/03/10 03:28:57;;;;;;;0.67;0.60;;;9.10;99.90;;;;;;4958244;28;20192;-36
2023/03/10 03:31:26;;;;;;;0.40;0.40;;;9.10;99.90;;;;;;4958590;28;20708;-36
2023/03/10 03:34:03;;;;;;;1.33;0.70;;;9.10;99.90;;;;;;4969637;28;20237;-37
2023/03/10 03:36:29;;;;;;;0.80;0.60;;;9.10;99.90;;;;;;4974004;28;20180;-36
2023/03/10 03:38:55;;;;;;;0.70;0.60;;;9.10;99.90;;;;;;4973965;28;20187;-39
2023/03/10 03:41:21;;;;;;;0.70;0.50;;;9.10;99.90;;;;;;4974152;28;20321;-41
2023/03/10 03:43:47;;;;;;;1.70;0.60;;;9.10;99.90;;;;;;4958242;28;20211;-39
2023/03/10 03:46:13;;;;;;;0.53;0.50;;;9.10;99.90;;;;;;4958061;28;20214;-41
2023/03/10 03:48:39;;;;;;;0.50;0.50;;;9.10;99.90;;;;;;4973868;28;20187;-40
2023/03/10 03:51:07;;;;;;;0.87;0.70;;;9.10;99.90;;;;;;4973356;28;20203;-39
2023/03/10 03:53:37;;;;;;;1.20;0.80;;;9.10;99.90;;;;;;4974608;28;20168;-39
2023/03/10 03:56:04;;;;;;;0.77;0.73;;;9.10;99.90;;;;;;4974044;28;20180;-38
2023/03/10 03:58:33;;;;;;;1.57;0.70;;;9.10;99.90;;;;;;4973796;28;20184;-38
2023/03/10 04:00:59;;;;;;;0.63;0.60;;;9.10;99.90;;;;;;4954538;28;20180;-38
2023/03/10 04:03:29;;;;;;;1.37;0.60;;;9.10;99.90;;;;;;4962100;28;20180;-39
2023/03/10 04:05:55;;;;;;;1.23;0.77;;;9.10;99.90;;;;;;4973685;28;20599;-39
2023/03/10 04:08:21;;;;;;;1.77;0.70;;;9.10;99.90;;;;;;4973505;28;20179;-39
2023/03/10 04:10:53;;;;;;;2.37;1.10;;;9.10;99.90;;;;;;4961251;28;20176;-42
2023/03/10 04:13:21;;;;;;;2.33;1.47;;;9.20;99.90;;;;;;4993646;28;20187;-38
2023/03/10 04:15:57;;;;;;;4.20;1.83;;;9.20;99.90;;;;;;4976061;28;20208;-43
2023/03/10 04:18:25;;;;;;;2.70;1.30;;;9.20;99.90;;;;;;4977013;28;20176;-39
2023/03/10 04:20:51;;;;;;;2.20;1.30;;;9.20;99.90;;;;;;4977304;28;20286;-36
2023/03/10 04:23:18;;;;;;;1.80;1.20;;;9.20;99.90;;;;;;4974876;28;20637;-36
2023/03/10 04:25:44;;;;;;;2.27;1.30;;;9.20;99.90;;;;;;4994730;28;20242;-37
2023/03/10 04:28:11;;;;;;;1.87;1.07;;;9.20;99.90;;;;;;4960104;28;20173;-36
2023/03/10 04:30:41;;;;;;;1.73;1.07;;;9.20;99.90;;;;;;4990042;28;20177;-37
2023/03/10 04:33:09;;;;;;;2.13;1.63;;;9.20;99.90;;;;;;4980855;28;20215;-37
2023/03/10 04:35:39;;;;;;;4.03;1.93;;;9.10;99.90;;;;;;4961133;28;20259;-36
2023/03/10 04:38:05;;;;;;;2.50;1.20;;;9.10;99.90;;;;;;4976931;28;20176;-38
2023/03/10 04:40:31;;;;;;;2.17;1.33;;;9.10;99.90;;;;;;4973458;28;20181;-37
2023/03/10 04:42:57;;;;;;;2.20;1.50;;;9.00;99.90;;;;;;4987396;28;20615;-38
2023/03/10 04:45:23;;;;;;;3.27;1.50;;;9.00;99.90;;;;;;4976489;28;20281;-37
2023/03/10 04:47:51;;;;;;;1.60;1.20;;;9.00;99.90;;;;;;4976403;28;20183;-36
2023/03/10 04:50:17;;;;;;;1.20;0.90;;;8.90;99.90;;;;;;4957322;28;20271;-42
2023/03/10 04:52:45;;;;;;;4.00;1.00;;;8.90;99.90;;;;;;4970177;28;20287;-38
2023/03/10 04:55:12;;;;;;;2.77;0.90;;;8.90;99.90;;;;;;4976552;28;20184;-38
2023/03/10 04:57:38;;;;;;;1.80;0.90;;;8.90;99.90;;;;;;4976027;28;20180;-39
2023/03/10 05:00:06;;;;;;;2.00;0.83;;;8.90;99.90;;;;;;4960250;28;20180;-39
2023/03/10 05:02:34;;;;;;;3.90;1.30;;;8.90;99.90;;;;;;4976329;28;20286;-40
2023/03/10 05:05:02;;;;;;;4.43;1.00;;;8.90;99.90;;;;;;4976525;28;20254;-38
2023/03/10 05:07:28;;;;;;;0.97;0.73;;;8.90;99.90;;;;;;4962882;28;20176;-40
2023/03/10 05:09:54;;;;;;;1.80;0.90;;;8.90;99.90;;;;;;4960082;28;20230;-39
2023/03/10 05:12:20;;;;;;;1.63;0.80;;;8.90;99.90;;;;;;4975719;28;20257;-38
2023/03/10 05:14:47;;;;;;;2.00;0.90;;;8.90;99.90;;;;;;4992657;28;20176;-41
2023/03/10 05:17:13;;;;;;;1.83;0.90;;;8.90;99.90;;;;;;4993688;28;20176;-40
2023/03/10 05:19:39;;;;;;;1.33;1.00;;;8.90;99.90;;;;;;4974931;28;20172;-39
2023/03/10 05:22:06;;;;;;;2.23;0.90;;;9.00;99.90;;;;;;4956029;28;20193;-37
2023/03/10 05:24:36;;;;;;;2.57;1.50;;;9.00;99.90;;;;;;4965914;28;20187;-39
2023/03/10 05:27:02;;;;;;;4.47;1.50;;;8.90;99.90;;;;;;4975551;28;20180;-41
2023/03/10 05:29:28;;;;;;;3.83;1.50;;;8.90;99.90;;;;;;4959233;28;20182;-38
2023/03/10 05:32:00;;;;;;;1.53;0.80;;;8.90;99.90;;;;;;4960298;28;20203;-40
2023/03/10 05:34:31;;;;;;;1.10;0.87;;;8.90;99.90;;;;;;4975377;28;20180;-43
2023/03/10 05:37:00;;;;;;;2.20;1.10;;;8.90;99.90;;;;;;4975445;28;20175;-42
2023/03/10 05:39:28;;;;;;;4.57;1.00;;;8.80;99.90;;;;;;4975628;28;20313;-42
2023/03/10 05:41:56;;;;;;;0.70;0.70;;;8.80;99.90;;;;;;4975981;28;20215;-38
2023/03/10 05:44:25;;;;;;;3.17;1.00;;;8.80;99.90;;;;;;4977002;28;20179;-38
2023/03/10 05:46:51;;;;;;;2.77;1.00;;;8.80;99.90;;;;;;4991708;28;20184;-39
2023/03/10 05:49:19;;;;;;;2.13;0.93;;;8.70;99.90;;;;;;4959909;28;20191;-38
2023/03/10 05:51:45;;;;;;;6.53;1.00;;;8.70;99.90;;;;;;4972255;28;20220;-40
2023/03/10 05:54:12;;;;;;;1.40;1.00;;;8.70;99.90;;;;;;4968807;28;20187;-39
2023/03/10 05:56:38;;;;;;;2.17;1.17;;;8.70;99.90;;;;;;4959412;28;20180;-38
2023/03/10 05:59:06;;;;;;;3.60;1.20;;;8.70;99.90;;;;;;4959246;28;20271;-38
2023/03/10 06:01:36;;;;;;;2.77;0.97;;;8.80;99.90;;;;;;4959702;28;20210;-38
2023/03/10 06:04:03;;;;;;;1.73;1.10;;;8.70;99.90;;;;;;4992739;28;20180;-38
2023/03/10 06:06:29;;;;;;;1.47;1.23;;;8.80;99.90;;;;;;4975735;28;20179;-40
2023/03/10 06:08:56;;;;;;;1.97;0.80;;;8.80;99.90;;;;;;4959105;28;20184;-39
2023/03/10 06:11:22;;;;;;;4.67;1.47;;;8.80;99.90;;;;;;4968789;28;20234;-40
2023/03/10 06:13:48;;;;;;;3.43;1.60;;;8.80;99.90;;;;;;4971102;28;20184;-39
2023/03/10 06:16:15;;;;;;;6.03;3.70;;;8.80;99.90;;;;;;4963703;28;20234;-38
2023/03/10 06:18:42;;;;;;;2.10;1.90;;;8.80;99.90;;;;;;4983189;28;20258;-42
2023/03/10 06:21:11;;;;;;;1.23;1.00;;;8.80;99.90;;;;;;4964179;28;20276;-42
2023/03/10 06:23:37;;;;;;;1.30;0.70;;;8.90;99.90;;;;;;4967542;28;20180;-44
2023/03/10 06:26:10;;;;;;;1.70;0.73;;;8.90;99.90;;;;;;4970655;28;20180;-38
2023/03/10 06:28:39;;;;;;;0.97;0.80;;;9.00;99.90;;;;;;4970651;28;20164;-38
2023/03/10 06:31:15;;;;;;;1.23;0.90;;;9.00;99.90;;;;;;4975159;28;20182;-39
2023/03/10 06:33:41;;;;;;;0.80;0.80;;;9.00;99.90;;;;;;4990436;28;20314;-38
2023/03/10 06:36:12;;;;;;;1.50;1.00;;;8.90;99.90;;;;;;4983588;28;20230;-39
2023/03/10 06:38:38;;;;;;;1.13;1.03;;;8.90;99.90;;;;;;4957870;28;20783;-37
2023/03/10 06:41:05;;;;;;;2.47;1.17;;;8.90;99.90;;;;;;4958454;28;20326;-38
2023/03/10 06:43:32;;;;;;;2.13;1.33;;;8.90;99.90;;;;;;4991094;28;20258;-38
2023/03/10 06:45:58;;;;;;;3.10;1.37;;;8.90;99.90;;;;;;4991750;28;20270;-42
2023/03/10 06:48:24;;;;;;;1.53;1.17;;;9.00;99.90;;;;;;4974650;28;20383;-38
2023/03/10 06:50:50;;;;;;;2.10;1.20;;;9.00;99.90;;;;;;4974529;28;20278;-40
2023/03/10 06:53:18;;;;;;;2.60;1.13;;;9.10;99.90;;;;;;4974068;28;20203;-41
2023/03/10 06:55:44;;;;;;;3.63;1.80;;;9.10;99.90;;;;;;4990333;28;20198;-38
2023/03/10 06:58:10;;;;;;;2.23;1.27;;;9.20;99.90;;;;;;4990205;28;20180;-39
2023/03/10 07:00:38;;;;;;;4.30;1.80;;;9.20;99.90;;;;;;4990493;28;20180;-39
2023/03/10 07:03:04;;;;;;;3.80;1.40;;;9.20;99.90;;;;;;4974020;28;20208;-40
2023/03/10 07:05:30;;;;;;;3.40;2.10;;;9.20;99.90;;;;;;4990062;28;20176;-39
2023/03/10 07:07:56;;;;;;;4.63;2.73;;;9.30;99.90;;;;;;4947844;28;20339;-39
2023/03/10 07:10:22;;;;;;;3.53;2.23;;;9.30;99.90;;;;;;4975952;28;20267;-38
2023/03/10 07:12:53;;;;;;;1.40;1.30;;;9.30;99.90;;;;;;4975420;28;20351;-38
2023/03/10 07:15:24;;;;;;;2.57;1.17;;;9.30;99.90;;;;;;4973757;28;20183;-38
2023/03/10 07:17:55;;;;;;;4.97;2.97;;;9.30;99.90;;;;;;4986889;28;20222;-39
2023/03/10 07:20:23;;;;;;;3.53;2.60;;;9.30;99.90;;;;;;4986821;28;20275;-42
2023/03/10 07:22:49;;;;;;;3.87;1.57;;;9.30;99.90;;;;;;4985106;28;20700;-39
2023/03/10 07:25:16;;;;;;;2.40;1.50;;;9.30;99.90;;;;;;4957197;28;20184;-41
2023/03/10 07:27:42;;;;;;;6.23;3.10;;;9.40;99.90;;;;;;4995014;28;20192;-37
2023/03/10 07:30:08;;;;;;;5.17;3.03;;;9.40;99.90;;;;;;4988895;28;20184;-36
2023/03/10 07:32:34;;;;;;;3.50;2.10;;;9.40;99.90;;;;;;4988524;28;20211;-37
2023/03/10 07:35:00;;;;;;;1.37;1.27;;;9.40;99.90;;;;;;4991729;28;20186;-36
2023/03/10 07:37:26;;;;;;;2.53;1.30;;;9.40;99.90;;;;;;4993624;28;20187;-36
2023/03/10 07:39:55;;;;;;;1.40;1.10;;;9.50;99.90;;;;;;4974653;28;20175;-36
2023/03/10 07:42:21;;;;;;;2.37;1.17;;;9.50;99.90;;;;;;4989292;28;20217;-36
2023/03/10 07:44:47;;;;;;;2.03;1.10;;;9.50;99.90;;;;;;4992002;28;20651;-37
2023/03/10 07:47:13;;;;;;;1.27;1.00;;;9.60;99.90;;;;;;4993055;28;20205;-39
2023/03/10 07:49:45;;;;;;;1.63;0.90;;;9.60;99.90;;;;;;4977755;28;20195;-37
2023/03/10 07:52:11;;;;;;;1.10;1.00;;;9.60;99.90;;;;;;4977768;28;20215;-36
2023/03/10 07:54:37;;;;;;;1.73;0.97;;;9.60;99.90;;;;;;4993929;28;20230;-36
2023/03/10 07:57:03;;;;;;;2.20;0.97;;;9.60;99.90;;;;;;4977839;28;20200;-37
2023/03/10 07:59:29;;;;;;;1.30;0.80;;;9.60;99.90;;;;;;4977564;28;20171;-36
2023/03/10 08:01:55;;;;;;;2.07;1.17;;;9.60;99.90;;;;;;4995120;28;20278;-37
2023/03/10 08:04:21;;;;;;;2.40;2.03;;;9.60;99.90;;;;;;4991746;28;20192;-36
2023/03/10 08:06:47;;;;;;;3.20;1.20;;;9.60;99.90;;;;;;4961246;28;20238;-36
2023/03/10 08:09:12;;;;;;;2.83;1.20;;;9.70;99.90;;;;;;4977605;28;20176;-36
2023/03/10 08:11:38;;;;;;;2.10;0.90;;;9.70;99.90;;;;;;4994656;28;20717;-38
2023/03/10 08:14:04;;;;;;;1.53;0.90;;;9.60;99.90;;;;;;4976968;28;20203;-36
2023/03/10 08:16:30;;;;;;;1.77;1.00;;;9.60;99.90;;;;;;4977624;28;20184;-36
2023/03/10 08:18:55;;;;;;;2.77;1.50;;;9.60;99.90;;;;;;4993375;28;20200;-36
2023/03/10 08:21:21;;;;;;;1.93;1.20;;;9.60;99.90;;;;;;4977149;28;20226;-36
2023/03/10 08:23:47;;;;;;;2.93;1.60;;;9.60;99.90;;;;;;4977169;28;20204;-36
2023/03/10 08:26:16;;;;;;;2.50;1.13;;;9.60;99.90;;;;;;4977290;28;20179;-39
2023/03/10 08:28:42;;;;;;;2.23;0.97;;;9.70;99.90;;;;;;4993181;28;20213;-39
2023/03/10 08:31:10;;;;;;;1.30;1.00;;;9.80;99.90;;;;;;4994677;28;20247;-39
2023/03/10 08:33:37;;;;;;;1.50;0.90;;;9.80;99.90;;;;;;5000315;28;20165;-39
2023/03/10 08:36:08;;;;;;;2.13;1.00;;;9.90;99.90;;;;;;4976747;28;20180;-40
2023/03/10 08:38:35;;;;;;;2.50;0.93;;;9.90;99.90;;;;;;4977192;28;20187;-39
2023/03/10 08:41:28;;;;;;;1.03;0.60;;;10.00;99.90;;;;;;4976805;28;20210;-40
2023/03/10 08:43:56;;;;;;;1.97;0.80;;;10.20;99.90;;;;;;4974876;28;20188;-40
2023/03/10 08:46:24;;;;;;;1.27;0.80;;;10.30;99.90;;;;;;4960356;28;20185;-39
2023/03/10 08:48:50;;;;;;;2.30;1.00;;;10.30;99.90;;;;;;4992839;28;20223;-39
2023/03/10 08:51:17;;;;;;;1.30;1.00;;;10.30;99.90;;;;;;4975080;28;20199;-39
2023/03/10 08:53:45;;;;;;;2.00;1.07;;;10.30;99.90;;;;;;4992871;28;20192;-44
2023/03/10 08:56:12;;;;;;;1.47;0.90;;;10.40;99.90;;;;;;4981226;28;20203;-39
2023/03/10 08:58:38;;;;;;;1.83;0.80;;;10.50;99.90;;;;;;4976475;28;20172;-41
2023/03/10 09:01:04;;;;;;;1.37;0.90;;;10.60;99.90;;;;;;4976343;28;20187;-39
2023/03/10 09:03:30;;;;;;;1.47;0.83;;;10.80;99.90;;;;;;4976167;28;20173;-41
2023/03/10 09:05:56;;;;;;;1.70;1.17;;;10.90;99.90;;;;;;4992795;28;20186;-42
2023/03/10 09:08:22;;;;;;;1.80;0.70;;;11.10;99.90;;;;;;4989387;28;20181;-39
2023/03/10 09:10:49;;;;;;;1.93;0.90;;;11.30;99.90;;;;;;4973389;28;20230;-41
2023/03/10 09:13:15;;;;;;;1.73;0.80;;;11.50;99.90;;;;;;4992008;28;20246;-39
2023/03/10 09:15:41;;;;;;;1.10;0.90;;;11.60;99.90;;;;;;4975868;28;20182;-41
2023/03/10 09:18:08;;;;;;;1.20;0.70;;;11.80;99.90;;;;;;4993501;28;20169;-39
2023/03/10 09:20:36;;;;;;;1.97;0.80;;;11.70;99.90;;;;;;4976054;28;20232;-39
2023/03/10 09:23:02;;;;;;;1.30;0.77;;;11.70;99.90;;;;;;4959138;28;20209;-39
2023/03/10 09:25:29;;;;;;;1.30;0.80;;;11.70;99.90;;;;;;4975796;28;20187;-41
2023/03/10 09:27:55;;;;;;;1.53;0.70;;;11.70;99.90;;;;;;4963806;28;20185;-41
2023/03/10 09:30:21;;;;;;;4.33;0.97;;;11.50;99.90;;;;;;4959943;28;20188;-39
2023/03/10 09:32:48;;;;;;;2.93;0.80;;;11.40;99.90;;;;;;4959953;28;20222;-39
2023/03/10 09:35:22;;;;;;;2.33;0.70;;;11.30;99.90;;;;;;4967511;28;20176;-39
2023/03/10 09:37:48;;;;;;;2.07;0.60;;;11.30;99.90;;;;;;4959678;28;20183;-39
2023/03/10 09:40:18;;;;;;;2.87;1.10;;;11.50;99.90;;;;;;4993756;28;20194;-40
2023/03/10 09:42:46;;;;;;;1.70;0.93;;;11.70;99.90;;;;;;4993058;28;20212;-40
2023/03/10 09:45:32;;;;;;;2.07;0.80;;;11.50;99.90;;;;;;4959252;28;20189;-40
2023/03/10 09:48:03;;;;;;;3.90;0.80;;;11.40;99.90;;;;;;4956124;28;20193;-38
2023/03/10 09:50:44;;;;;;;2.23;1.00;;;11.30;99.90;;;;;;4956148;28;20184;-44
2023/03/10 09:53:41;;;;;;;1.33;1.10;;;11.20;99.90;;;;;;4971861;28;20216;-38
2023/03/10 09:56:17;;;;;;;2.77;0.80;;;11.10;99.90;;;;;;4956312;28;20686;-39
2023/03/10 09:58:55;;;;;;;2.00;0.97;;;11.10;99.90;;;;;;4955918;28;20256;-42
2023/03/10 10:01:25;;;;;;;4.33;1.00;;;11.20;99.90;;;;;;4972312;28;20292;-39
2023/03/10 10:04:04;;;;;;;3.73;0.83;;;11.30;99.90;;;;;;4967532;28;20216;-40
2023/03/10 10:06:37;;;;;;;3.50;0.93;;;11.30;99.90;;;;;;4991551;28;20179;-39
2023/03/10 10:09:06;;;;;;;2.50;0.80;;;11.40;99.90;;;;;;4975176;28;20180;-39
2023/03/10 10:11:35;;;;;;;2.30;0.80;;;11.50;99.90;;;;;;4975353;28;20218;-39
2023/03/10 10:14:26;;;;;;;4.00;0.83;;;11.50;99.90;;;;;;4991849;28;20696;-39
2023/03/10 10:17:29;;;;;;;3.27;1.10;;;11.40;99.90;;;;;;4975042;28;20179;-40
2023/03/10 10:19:56;;;;;;;1.73;0.90;;;11.30;99.90;;;;;;4956582;28;20187;-39
2023/03/10 10:22:33;;;;;;;3.00;1.20;;;11.20;99.90;;;;;;4990764;28;20234;-41
2023/03/10 10:25:34;;;;;;;1.73;0.77;;;11.10;99.90;;;;;;4974964;28;20240;-39
2023/03/10 10:28:05;;;;;;;2.20;1.17;;;11.00;99.90;;;;;;4953131;28;20227;-39
2023/03/10 10:30:35;;;;;;;1.17;0.90;;;10.90;99.90;;;;;;4958662;28;20192;-39
2023/03/10 10:33:06;;;;;;;2.87;1.00;;;10.80;99.90;;;;;;4974701;28;20211;-39
2023/03/10 10:35:39;;;;;;;1.30;0.80;;;10.70;99.90;;;;;;4974425;28;20256;-40
2023/03/10 10:38:08;;;;;;;1.93;0.90;;;10.70;99.90;;;;;;4974639;28;20180;-39
2023/03/10 10:40:47;;;;;;;2.93;1.63;;;10.70;99.90;;;;;;4971377;28;20181;-38
2023/03/10 10:43:18;;;;;;;1.73;1.00;;;10.60;99.90;;;;;;4955384;28;20221;-39
2023/03/10 10:45:52;;;;;;;4.73;1.30;;;10.60;99.90;;;;;;4954674;28;20264;-41
2023/03/10 10:48:34;;;;;;;2.20;0.90;;;10.70;99.90;;;;;;4971375;28;20187;-41
2023/03/10 10:51:01;;;;;;;2.43;1.07;;;10.70;99.90;;;;;;4972446;28;20181;-40
2023/03/10 10:53:33;;;;;;;1.57;0.90;;;10.80;99.90;;;;;;4954394;28;20300;-39
2023/03/10 10:56:11;;;;;;;4.90;0.80;;;10.90;99.90;;;;;;4955100;28;20194;-41
2023/03/10 10:58:40;;;;;;;1.77;1.03;;;10.90;99.90;;;;;;4972735;28;20253;-39
2023/03/10 11:01:14;;;;;;;2.47;0.90;;;11.00;99.90;;;;;;4955248;28;20239;-41
2023/03/10 11:03:46;;;;;;;2.30;0.80;;;11.10;99.90;;;;;;4964926;28;20181;-45
2023/03/10 11:06:27;;;;;;;1.77;0.77;;;11.20;99.90;;;;;;4974450;28;20189;-40
2023/03/10 11:09:10;;;;;;;1.93;1.00;;;11.20;99.90;;;;;;4990567;28;20183;-41
2023/03/10 11:11:38;;;;;;;2.63;1.10;;;11.20;99.90;;;;;;4974501;28;20264;-40
2023/03/10 11:14:27;;;;;;;2.67;1.00;;;11.10;99.90;;;;;;4958192;28;20177;-39
2023/03/10 11:17:14;;;;;;;2.33;1.00;;;11.00;99.90;;;;;;4961895;28;20188;-42
2023/03/10 11:19:48;;;;;;;4.40;2.13;;;10.90;99.90;;;;;;4974940;28;20176;-38
2023/03/10 11:22:39;;;;;;;4.13;1.90;;;10.90;99.90;;;;;;4964104;28;20206;-38
2023/03/10 11:25:27;;;;;;;2.73;1.10;;;10.90;99.90;;;;;;4964711;28;20195;-39
2023/03/10 11:28:18;;;;;;;1.60;0.80;;;10.80;99.90;;;;;;4950434;28;20176;-38
2023/03/10 11:30:47;;;;;;;1.97;1.00;;;10.80;99.90;;;;;;4969050;28;20271;-39
2023/03/10 11:33:35;;;;;;;2.17;0.80;;;11.00;99.90;;;;;;4978864;28;20218;-41
2023/03/10 11:36:10;;;;;;;2.00;0.80;;;11.00;99.90;;;;;;4972928;28;20191;-38
2023/03/10 11:38:41;;;;;;;3.07;0.80;;;11.10;99.90;;;;;;4989378;28;20267;-39
2023/03/10 11:41:15;;;;;;;2.20;0.73;;;11.00;99.90;;;;;;5042029;23;20231;-37
2023/03/10 11:44:02;;;;;;;2.00;0.80;;;11.00;99.90;;;;;;4967922;28;20268;-37
2023/03/10 11:46:32;;;;;;;1.67;0.70;;;11.00;99.90;;;;;;4947251;28;20246;-37
2023/03/10 11:49:04;;;;;;;1.70;0.80;;;11.00;99.90;;;;;;4979031;28;20208;-36
2023/03/10 11:51:40;;;;;;;1.03;0.80;;;11.00;99.90;;;;;;4960437;28;20208;-36
2023/03/10 11:56:41;;;;;;;2.73;0.83;;;11.00;99.90;;;;;;5014761;28;20252;-42
2023/03/10 11:59:27;;;;;;;0.60;0.50;;;11.10;99.90;;;;;;5015255;28;20183;-43
2023/03/10 12:02:20;;;;;;;2.33;0.50;;;11.00;99.90;;;;;;5015024;28;20181;-41
2023/03/10 12:04:59;;;;;;;2.43;0.47;;;11.00;99.90;;;;;;4996411;28;20207;-43
2023/03/10 12:07:37;;;;;;;1.23;0.87;;;11.00;99.90;;;;;;4983557;28;20295;-39
2023/03/10 12:10:11;;;;;;;0.97;0.70;;;11.10;99.90;;;;;;4994465;28;20212;-43
2023/03/10 12:12:46;;;;;;;1.13;0.70;;;11.20;99.90;;;;;;4980070;28;20684;-42
2023/03/10 12:15:21;;;;;;;2.10;0.57;;;11.30;99.90;;;;;;4979923;28;20197;-42
2023/03/10 12:17:48;;;;;;;0.87;0.50;;;11.30;99.90;;;;;;4998732;28;20173;-43
2023/03/10 12:20:16;;;;;;;1.47;0.50;;;11.30;99.90;;;;;;5012760;28;20178;-42
2023/03/10 12:22:59;;;;;;;0.90;0.57;;;11.30;99.90;;;;;;4979893;28;20181;-43
2023/03/10 12:25:28;;;;;;;0.73;0.50;;;11.30;99.90;;;;;;4996779;28;20213;-43
2023/03/10 12:28:16;;;;;;;0.50;0.47;;;11.30;99.90;;;;;;4979419;28;20216;-40
2023/03/10 12:30:49;;;;;;;0.90;0.50;;;11.10;99.90;;;;;;4985600;28;20282;-43
2023/03/10 12:33:36;;;;;;;1.13;0.40;;;11.00;99.90;;;;;;4987542;28;20298;-43
2023/03/10 12:36:20;;;;;;;0.97;0.80;;;10.90;99.90;;;;;;4993210;28;20187;-42
2023/03/10 12:38:52;;;;;;;0.40;0.40;;;10.80;99.90;;;;;;4999427;28;20182;-43
2023/03/10 12:41:24;;;;;;;0.80;0.50;;;10.70;99.90;;;;;;4996724;28;20249;-40
2023/03/10 12:44:01;;;;;;;1.60;0.70;;;10.60;99.90;;;;;;4971542;28;20200;-42
2023/03/10 12:46:42;;;;;;;0.87;0.50;;;10.70;99.90;;;;;;4993160;28;20176;-42
2023/03/10 12:49:39;;;;;;;0.60;0.60;;;10.60;99.90;;;;;;4996127;28;20215;-43
2023/03/10 12:52:23;;;;;;;0.93;0.50;;;10.60;99.90;;;;;;5003619;28;20305;-38
2023/03/10 12:55:23;;;;;;;0.40;0.40;;;10.50;99.90;;;;;;5001031;28;20199;-43
2023/03/10 12:57:52;;;;;;;2.27;0.70;;;10.50;99.90;;;;;;4979438;28;20183;-43
2023/03/10 13:00:27;;;;;;;0.67;0.50;;;10.40;99.90;;;;;;5002723;28;20218;-42
2023/03/10 13:03:12;;;;;;;0.30;0.30;;;10.50;99.90;;;;;;4995617;28;20178;-42
2023/03/10 13:05:41;;;;;;;1.20;0.47;;;10.50;99.90;;;;;;4994710;28;20206;-43
2023/03/10 13:08:20;;;;;;;0.60;0.60;;;10.40;99.90;;;;;;4995028;28;20265;-42
2023/03/10 13:10:54;;;;;;;0.70;0.50;;;10.40;99.90;;;;;;4995829;28;20191;-44